• Join FlightAware (Why Join?)
  • Login
  • US Flag 
04:30AM EST


 

Airport Tracker/Info


-or-


 

Live Flight TrackerFlight Track Log ✈ N88JH ✈ 22-Sep-2013 ✈ KCOD - KJAC

Flight Track Log - Related Links

Times and Time Zones

All times are in EDT time to prevent confusion due to time zone crossing. See the N88JH flight status page for this flight to view local times or setup timezone preferences in your user account.

Time Position Orientation Groundspeed Altitude Reporting Facility
EDT Latitude Longitude Course Direction KTS MPH feet Rate Location/Type
03:06PM 44.5472 -109.0039 245° Southwest 177 204 6,300  Level Salt Lake Center
03:07PM 44.5897 -108.9897 13° North 158 182 8,000 1,680 Climbing Salt Lake Center
03:08PM 44.6361 -108.9736 14° North 164 189 9,800 1,740 Climbing Salt Lake Center
03:09PM 44.3037 -109.4395 235° Southwest  Level Estimated
03:09PM 44.6281 -109.0342 259° West 178 205 11,600  Level Salt Lake Center
03:10PM 44.2675 -109.5084 237° Southwest  Level Estimated
03:10PM 44.6019 -109.0900 237° Southwest 173 199 13,500  Level Salt Lake Center
03:11PM 44.2415 -109.5858 245° Southwest  Level FlightAware Approximate
03:11PM 44.5747 -109.1458 236° Southwest 173 199 15,600  Level Salt Lake Center
03:12PM 44.5472 -109.1942 231° Southwest 163 188 17,300 1,620 Climbing Salt Lake Center
03:13PM 44.5153 -109.2603 236° Southwest 168 193 19,000 1,200 Climbing Salt Lake Center
03:14PM 44.4858 -109.3172 234° Southwest 177 204 19,900 480 Climbing Salt Lake Center
03:15PM 44.4522 -109.3844 235° Southwest 200 230 20,000  Climbing Salt Lake Center
03:16PM 44.4150 -109.4586 235° Southwest 224 258 20,000  Level Salt Lake Center
03:18PM 44.3703 -109.5353 231° Southwest 231 266 20,000 -60 Level Salt Lake Center
03:19PM 44.3325 -109.6039 232° Southwest 232 267 19,900  Descending Salt Lake Center
03:20PM 44.2875 -109.6828 231° Southwest 232 267 20,000  Climbing Salt Lake Center
03:21PM 44.2511 -109.7486 232° Southwest 227 261 19,900  Descending Salt Lake Center
03:22PM 44.2064 -109.8250 231° Southwest 227 261 20,000  Climbing Salt Lake Center
03:23PM 44.1717 -109.8944 235° Southwest 228 262 20,000  Level Salt Lake Center
03:24PM 44.1336 -109.9808 238° Southwest 233 268 20,000 -60 Level Salt Lake Center
03:25PM 44.1047 -110.0433 237° Southwest 229 264 19,900 -660 Descending Salt Lake Center
03:26PM 44.0489 -110.0975 215° Southwest 227 261 18,700 -1,440 Descending Salt Lake Center
03:27PM 43.9878 -110.1600 216° Southwest 238 274 17,000 -1,320 Descending Salt Lake Center
03:28PM 43.9367 -110.2167 219° Southwest 243 280 16,000 -900 Descending Salt Lake Center
03:29PM 43.8825 -110.2803 220° Southwest 234 269 15,200 -780 Descending Salt Lake Center
03:30PM 43.8389 -110.3311 220° Southwest 223 257 14,500 -1,020 Descending Salt Lake Center
03:31PM 43.8203 -110.4011 250° West 201 231 13,200 -1,020 Descending Salt Lake Center
03:32PM 43.8078 -110.4619 254° West 196 226 12,400 -780 Descending Salt Lake Center
03:33PM 43.7747 -110.5414 240° Southwest 196 226 11,600 -840 Descending Salt Lake Center
03:34PM 43.7436 -110.6056 236° Southwest 201 231 10,700 -1,020 Descending Salt Lake Center
03:35PM 43.7089 -110.6600 229° Southwest 196 226 9,500 -1,260 Descending Salt Lake Center
03:36PM 43.6728 -110.7039 221° Southwest 180 207 8,200 -1,260 Descending Salt Lake Center
03:37PM 43.6394 -110.7225 202° Southwest 147 169 7,000 -1,200 Descending Salt Lake Center